Terminal Aerodrome Forecast
Issued by NWS Sterling, VA

Current Version | Previous Version | Graphics & Text | Print | Product List | Glossary On
Versions: 1 2 3 4 5 6 7 8 9 10 11 12 13 14 15 16 17 18 19 20 21 22 23 24 25 26
168
FTUS41 KLWX 271739
TAFDCA
TAF
KDCA 271739Z 2718/2818 16010KT P6SM FEW015
     FM272300 17005KT P6SM BKN050
     FM280900 20004KT 3SM BR BKN010
     FM281400 VRB03KT P6SM BKN100
     FM281500 21006KT P6SM BKN090=

USA.gov is the U.S. government's official web portal to all federal, state and local government web resources and services.